sensor_id;sensor_type;location;lat;lon;timestamp;temperature;humidity
42095;DHT22;27753;55.724;37.612;2022-12-11T00:00:51;0.50;99.90
42095;DHT22;27753;55.724;37.612;2022-12-11T00:03:17;0.50;99.90
42095;DHT22;27753;55.724;37.612;2022-12-11T00:05:44;0.50;99.90
42095;DHT22;27753;55.724;37.612;2022-12-11T00:08:11;0.50;99.90
42095;DHT22;27753;55.724;37.612;2022-12-11T00:10:37;0.50;99.90
42095;DHT22;27753;55.724;37.612;2022-12-11T00:13:03;0.50;99.90
42095;DHT22;27753;55.724;37.612;2022-12-11T00:15:30;0.50;99.90
42095;DHT22;27753;55.724;37.612;2022-12-11T00:17:56;0.50;99.90
42095;DHT22;27753;55.724;37.612;2022-12-11T00:20:22;0.50;99.90
42095;DHT22;27753;55.724;37.612;2022-12-11T00:22:48;0.50;99.90
42095;DHT22;27753;55.724;37.612;2022-12-11T00:25:14;0.50;99.90
42095;DHT22;27753;55.724;37.612;2022-12-11T00:27:39;0.50;99.90
42095;DHT22;27753;55.724;37.612;2022-12-11T00:30:06;0.50;99.90
42095;DHT22;27753;55.724;37.612;2022-12-11T00:32:32;0.50;99.90
42095;DHT22;27753;55.724;37.612;2022-12-11T00:34:58;0.50;99.90
42095;DHT22;27753;55.724;37.612;2022-12-11T00:37:24;0.50;99.90
42095;DHT22;27753;55.724;37.612;2022-12-11T00:39:50;0.50;99.90
42095;DHT22;27753;55.724;37.612;2022-12-11T00:42:16;0.50;99.90
42095;DHT22;27753;55.724;37.612;2022-12-11T00:44:42;0.50;99.90
42095;DHT22;27753;55.724;37.612;2022-12-11T00:47:08;0.50;99.90
42095;DHT22;27753;55.724;37.612;2022-12-11T00:49:33;0.50;99.90
42095;DHT22;27753;55.724;37.612;2022-12-11T00:51:59;0.50;99.90
42095;DHT22;27753;55.724;37.612;2022-12-11T00:54:25;0.50;99.90
42095;DHT22;27753;55.724;37.612;2022-12-11T00:56:51;0.50;99.90
42095;DHT22;27753;55.724;37.612;2022-12-11T00:59:16;0.60;99.90
42095;DHT22;27753;55.724;37.612;2022-12-11T01:01:42;0.60;99.90
42095;DHT22;27753;55.724;37.612;2022-12-11T01:04:08;0.60;99.90
42095;DHT22;27753;55.724;37.612;2022-12-11T01:06:34;0.60;99.90
42095;DHT22;27753;55.724;37.612;2022-12-11T01:09:00;0.60;99.90
42095;DHT22;27753;55.724;37.612;2022-12-11T01:11:44;0.60;99.90
42095;DHT22;27753;55.724;37.612;2022-12-11T01:14:10;0.60;99.90
42095;DHT22;27753;55.724;37.612;2022-12-11T01:16:36;0.60;99.90
42095;DHT22;27753;55.724;37.612;2022-12-11T01:19:03;0.70;99.90
42095;DHT22;27753;55.724;37.612;2022-12-11T01:21:28;0.60;99.90
42095;DHT22;27753;55.724;37.612;2022-12-11T01:23:54;0.70;99.90
42095;DHT22;27753;55.724;37.612;2022-12-11T01:26:20;0.70;99.90
42095;DHT22;27753;55.724;37.612;2022-12-11T01:28:50;0.70;99.90
42095;DHT22;27753;55.724;37.612;2022-12-11T01:31:20;0.70;99.90
42095;DHT22;27753;55.724;37.612;2022-12-11T01:33:47;0.70;99.90
42095;DHT22;27753;55.724;37.612;2022-12-11T01:36:18;0.70;99.90
42095;DHT22;27753;55.724;37.612;2022-12-11T01:38:45;0.70;99.90
42095;DHT22;27753;55.724;37.612;2022-12-11T01:41:12;0.70;99.90
42095;DHT22;27753;55.724;37.612;2022-12-11T01:43:57;0.70;99.90
42095;DHT22;27753;55.724;37.612;2022-12-11T01:46:24;0.70;99.90
42095;DHT22;27753;55.724;37.612;2022-12-11T01:48:49;0.70;99.90
42095;DHT22;27753;55.724;37.612;2022-12-11T01:51:15;0.70;99.90
42095;DHT22;27753;55.724;37.612;2022-12-11T01:53:47;0.70;99.90
42095;DHT22;27753;55.724;37.612;2022-12-11T01:56:13;0.70;99.90
42095;DHT22;27753;55.724;37.612;2022-12-11T01:58:45;0.70;99.90
42095;DHT22;27753;55.724;37.612;2022-12-11T02:01:21;0.70;99.90
42095;DHT22;27753;55.724;37.612;2022-12-11T02:03:49;0.70;99.90
42095;DHT22;27753;55.724;37.612;2022-12-11T02:09:04;0.70;99.90
42095;DHT22;27753;55.724;37.612;2022-12-11T02:15:02;0.70;99.90
42095;DHT22;27753;55.724;37.612;2022-12-11T02:17:50;0.70;99.90
42095;DHT22;27753;55.724;37.612;2022-12-11T02:20:30;0.70;99.90
42095;DHT22;27753;55.724;37.612;2022-12-11T02:25:56;0.70;99.90
42095;DHT22;27753;55.724;37.612;2022-12-11T02:28:29;0.70;99.90
42095;DHT22;27753;55.724;37.612;2022-12-11T02:31:35;0.70;99.90
42095;DHT22;27753;55.724;37.612;2022-12-11T02:36:39;0.70;99.90
42095;DHT22;27753;55.724;37.612;2022-12-11T02:39:07;0.70;99.90
42095;DHT22;27753;55.724;37.612;2022-12-11T02:41:35;0.70;99.90
42095;DHT22;27753;55.724;37.612;2022-12-11T02:44:02;0.70;99.90
42095;DHT22;27753;55.724;37.612;2022-12-11T02:46:30;0.70;99.90
42095;DHT22;27753;55.724;37.612;2022-12-11T02:48:58;0.70;99.90
42095;DHT22;27753;55.724;37.612;2022-12-11T02:51:30;0.70;99.90
42095;DHT22;27753;55.724;37.612;2022-12-11T02:53:58;0.70;99.90
42095;DHT22;27753;55.724;37.612;2022-12-11T02:56:35;0.70;99.90
42095;DHT22;27753;55.724;37.612;2022-12-11T02:59:08;0.70;99.90
42095;DHT22;27753;55.724;37.612;2022-12-11T03:01:36;0.70;99.90
42095;DHT22;27753;55.724;37.612;2022-12-11T03:04:02;0.70;99.90
42095;DHT22;27753;55.724;37.612;2022-12-11T03:06:38;0.70;99.90
42095;DHT22;27753;55.724;37.612;2022-12-11T03:09:05;0.70;99.90
42095;DHT22;27753;55.724;37.612;2022-12-11T03:11:31;0.70;99.90
42095;DHT22;27753;55.724;37.612;2022-12-11T03:13:58;0.70;99.90
42095;DHT22;27753;55.724;37.612;2022-12-11T03:16:34;0.70;99.90
42095;DHT22;27753;55.724;37.612;2022-12-11T03:19:36;0.70;99.90
42095;DHT22;27753;55.724;37.612;2022-12-11T03:22:10;0.70;99.90
42095;DHT22;27753;55.724;37.612;2022-12-11T03:25:02;0.70;99.90
42095;DHT22;27753;55.724;37.612;2022-12-11T03:27:36;0.70;99.90
42095;DHT22;27753;55.724;37.612;2022-12-11T03:30:15;0.70;99.90
42095;DHT22;27753;55.724;37.612;2022-12-11T03:32:53;0.70;99.90
42095;DHT22;27753;55.724;37.612;2022-12-11T03:38:00;0.70;99.90
42095;DHT22;27753;55.724;37.612;2022-12-11T03:40:30;0.70;99.90
42095;DHT22;27753;55.724;37.612;2022-12-11T03:42:57;0.70;99.90
42095;DHT22;27753;55.724;37.612;2022-12-11T03:45:25;0.70;99.90
42095;DHT22;27753;55.724;37.612;2022-12-11T03:47:51;0.60;99.90
42095;DHT22;27753;55.724;37.612;2022-12-11T03:50:19;0.70;99.90
42095;DHT22;27753;55.724;37.612;2022-12-11T03:52:47;0.60;99.90
42095;DHT22;27753;55.724;37.612;2022-12-11T03:55:16;0.60;99.90
42095;DHT22;27753;55.724;37.612;2022-12-11T03:57:42;0.60;99.90
42095;DHT22;27753;55.724;37.612;2022-12-11T04:00:11;0.70;99.90
42095;DHT22;27753;55.724;37.612;2022-12-11T04:02:39;0.60;99.90
42095;DHT22;27753;55.724;37.612;2022-12-11T04:05:05;0.70;99.90
42095;DHT22;27753;55.724;37.612;2022-12-11T04:07:31;0.70;99.90
42095;DHT22;27753;55.724;37.612;2022-12-11T04:09:57;0.60;99.90
42095;DHT22;27753;55.724;37.612;2022-12-11T04:12:23;0.70;99.90
42095;DHT22;27753;55.724;37.612;2022-12-11T04:14:49;0.70;99.90
42095;DHT22;27753;55.724;37.612;2022-12-11T04:17:30;0.70;99.90
42095;DHT22;27753;55.724;37.612;2022-12-11T04:20:15;0.70;99.90
42095;DHT22;27753;55.724;37.612;2022-12-11T04:23:04;0.70;99.90
42095;DHT22;27753;55.724;37.612;2022-12-11T04:25:48;0.70;99.90
42095;DHT22;27753;55.724;37.612;2022-12-11T04:28:14;0.60;99.90
42095;DHT22;27753;55.724;37.612;2022-12-11T04:30:46;0.60;99.90
42095;DHT22;27753;55.724;37.612;2022-12-11T04:33:12;0.50;99.90
42095;DHT22;27753;55.724;37.612;2022-12-11T04:35:37;0.50;99.90
42095;DHT22;27753;55.724;37.612;2022-12-11T04:38:03;0.50;99.90
42095;DHT22;27753;55.724;37.612;2022-12-11T04:40:29;0.50;99.90
42095;DHT22;27753;55.724;37.612;2022-12-11T04:42:55;0.50;99.90
42095;DHT22;27753;55.724;37.612;2022-12-11T04:45:21;0.60;99.90
42095;DHT22;27753;55.724;37.612;2022-12-11T04:47:47;0.60;99.90
42095;DHT22;27753;55.724;37.612;2022-12-11T04:50:14;0.60;99.90
42095;DHT22;27753;55.724;37.612;2022-12-11T04:52:40;0.60;99.90
42095;DHT22;27753;55.724;37.612;2022-12-11T04:55:07;0.60;99.90
42095;DHT22;27753;55.724;37.612;2022-12-11T04:57:33;0.60;99.90
42095;DHT22;27753;55.724;37.612;2022-12-11T04:59:59;0.60;99.90
42095;DHT22;27753;55.724;37.612;2022-12-11T05:02:26;0.50;99.90
42095;DHT22;27753;55.724;37.612;2022-12-11T05:04:52;0.50;99.90
42095;DHT22;27753;55.724;37.612;2022-12-11T05:07:18;0.50;99.90
42095;DHT22;27753;55.724;37.612;2022-12-11T05:09:45;0.50;99.90
42095;DHT22;27753;55.724;37.612;2022-12-11T05:12:13;0.40;99.90
42095;DHT22;27753;55.724;37.612;2022-12-11T05:14:40;0.40;99.90
42095;DHT22;27753;55.724;37.612;2022-12-11T05:17:07;0.40;99.90
42095;DHT22;27753;55.724;37.612;2022-12-11T05:19:34;0.40;99.90
42095;DHT22;27753;55.724;37.612;2022-12-11T05:22:01;0.40;99.90
42095;DHT22;27753;55.724;37.612;2022-12-11T05:24:28;0.40;99.90
42095;DHT22;27753;55.724;37.612;2022-12-11T05:27:09;0.30;99.90
42095;DHT22;27753;55.724;37.612;2022-12-11T05:29:45;0.30;99.90
42095;DHT22;27753;55.724;37.612;2022-12-11T05:32:11;0.30;99.90
42095;DHT22;27753;55.724;37.612;2022-12-11T05:34:37;0.30;99.90
42095;DHT22;27753;55.724;37.612;2022-12-11T05:37:03;0.30;99.90
42095;DHT22;27753;55.724;37.612;2022-12-11T05:39:31;0.30;99.90
42095;DHT22;27753;55.724;37.612;2022-12-11T05:42:00;0.30;99.90
42095;DHT22;27753;55.724;37.612;2022-12-11T05:44:52;0.30;99.90
42095;DHT22;27753;55.724;37.612;2022-12-11T05:47:28;0.30;99.90
42095;DHT22;27753;55.724;37.612;2022-12-11T05:50:19;0.30;99.90
42095;DHT22;27753;55.724;37.612;2022-12-11T05:52:47;0.30;99.90
42095;DHT22;27753;55.724;37.612;2022-12-11T05:55:13;0.30;99.90
42095;DHT22;27753;55.724;37.612;2022-12-11T05:57:39;0.30;99.90
42095;DHT22;27753;55.724;37.612;2022-12-11T06:00:05;0.40;99.90
42095;DHT22;27753;55.724;37.612;2022-12-11T06:02:58;0.40;99.90
42095;DHT22;27753;55.724;37.612;2022-12-11T06:06:25;0.50;99.90
42095;DHT22;27753;55.724;37.612;2022-12-11T06:09:27;0.50;99.90
42095;DHT22;27753;55.724;37.612;2022-12-11T06:11:58;0.50;99.90
42095;DHT22;27753;55.724;37.612;2022-12-11T06:14:46;0.40;99.90
42095;DHT22;27753;55.724;37.612;2022-12-11T06:17:54;0.50;99.90
42095;DHT22;27753;55.724;37.612;2022-12-11T06:21:13;0.50;99.90
42095;DHT22;27753;55.724;37.612;2022-12-11T06:24:19;0.50;99.90
42095;DHT22;27753;55.724;37.612;2022-12-11T06:27:04;0.50;99.90
42095;DHT22;27753;55.724;37.612;2022-12-11T06:29:44;0.60;99.90
42095;DHT22;27753;55.724;37.612;2022-12-11T06:32:11;0.50;99.90
42095;DHT22;27753;55.724;37.612;2022-12-11T06:34:37;0.60;99.90
42095;DHT22;27753;55.724;37.612;2022-12-11T06:37:03;0.60;99.90
42095;DHT22;27753;55.724;37.612;2022-12-11T06:39:29;0.60;99.90
42095;DHT22;27753;55.724;37.612;2022-12-11T06:41:54;0.60;99.90
42095;DHT22;27753;55.724;37.612;2022-12-11T06:44:20;0.70;99.90
42095;DHT22;27753;55.724;37.612;2022-12-11T06:46:51;0.70;99.90
42095;DHT22;27753;55.724;37.612;2022-12-11T06:49:17;0.70;99.90
42095;DHT22;27753;55.724;37.612;2022-12-11T06:51:42;0.80;99.90
42095;DHT22;27753;55.724;37.612;2022-12-11T06:54:08;0.70;99.90
42095;DHT22;27753;55.724;37.612;2022-12-11T06:56:35;0.70;99.90
42095;DHT22;27753;55.724;37.612;2022-12-11T06:59:01;0.60;99.90
42095;DHT22;27753;55.724;37.612;2022-12-11T07:01:28;0.60;99.90
42095;DHT22;27753;55.724;37.612;2022-12-11T07:03:58;0.50;99.90
42095;DHT22;27753;55.724;37.612;2022-12-11T07:06:28;0.40;99.90
42095;DHT22;27753;55.724;37.612;2022-12-11T07:08:54;0.40;99.90
42095;DHT22;27753;55.724;37.612;2022-12-11T07:11:21;0.40;99.90
42095;DHT22;27753;55.724;37.612;2022-12-11T07:13:48;0.30;99.90
42095;DHT22;27753;55.724;37.612;2022-12-11T07:16:17;0.40;99.90
42095;DHT22;27753;55.724;37.612;2022-12-11T07:18:46;0.40;99.90
42095;DHT22;27753;55.724;37.612;2022-12-11T07:21:18;0.40;99.90
42095;DHT22;27753;55.724;37.612;2022-12-11T07:23:44;0.40;99.90
42095;DHT22;27753;55.724;37.612;2022-12-11T07:26:18;0.40;99.90
42095;DHT22;27753;55.724;37.612;2022-12-11T07:28:50;0.50;99.90
42095;DHT22;27753;55.724;37.612;2022-12-11T07:31:19;0.50;99.90
42095;DHT22;27753;55.724;37.612;2022-12-11T07:33:47;0.50;99.90
42095;DHT22;27753;55.724;37.612;2022-12-11T07:36:17;0.60;99.90
42095;DHT22;27753;55.724;37.612;2022-12-11T07:38:43;0.60;99.90
42095;DHT22;27753;55.724;37.612;2022-12-11T07:41:12;0.60;99.90
42095;DHT22;27753;55.724;37.612;2022-12-11T07:43:40;0.60;99.90
42095;DHT22;27753;55.724;37.612;2022-12-11T07:46:09;0.60;99.90
42095;DHT22;27753;55.724;37.612;2022-12-11T07:48:37;0.60;99.90
42095;DHT22;27753;55.724;37.612;2022-12-11T07:51:18;0.60;99.90
42095;DHT22;27753;55.724;37.612;2022-12-11T07:54:01;0.60;99.90
42095;DHT22;27753;55.724;37.612;2022-12-11T07:56:28;0.60;99.90
42095;DHT22;27753;55.724;37.612;2022-12-11T07:58:55;0.60;99.90
42095;DHT22;27753;55.724;37.612;2022-12-11T08:01:24;0.60;99.90
42095;DHT22;27753;55.724;37.612;2022-12-11T08:03:51;0.60;99.90
42095;DHT22;27753;55.724;37.612;2022-12-11T08:06:18;0.70;99.90
42095;DHT22;27753;55.724;37.612;2022-12-11T08:08:46;0.70;99.90
42095;DHT22;27753;55.724;37.612;2022-12-11T08:11:14;0.70;99.90
42095;DHT22;27753;55.724;37.612;2022-12-11T08:13:47;0.70;99.90
42095;DHT22;27753;55.724;37.612;2022-12-11T08:16:14;0.60;99.90
42095;DHT22;27753;55.724;37.612;2022-12-11T08:18:44;0.70;99.90
42095;DHT22;27753;55.724;37.612;2022-12-11T08:21:22;0.70;99.90
42095;DHT22;27753;55.724;37.612;2022-12-11T08:23:49;0.80;99.90
42095;DHT22;27753;55.724;37.612;2022-12-11T08:26:23;0.70;99.90
42095;DHT22;27753;55.724;37.612;2022-12-11T08:28:50;0.70;99.90
42095;DHT22;27753;55.724;37.612;2022-12-11T08:31:24;0.70;99.90
42095;DHT22;27753;55.724;37.612;2022-12-11T08:33:51;0.70;99.90
42095;DHT22;27753;55.724;37.612;2022-12-11T08:36:19;0.70;99.90
42095;DHT22;27753;55.724;37.612;2022-12-11T08:38:45;0.70;99.90
42095;DHT22;27753;55.724;37.612;2022-12-11T08:41:15;0.70;99.90
42095;DHT22;27753;55.724;37.612;2022-12-11T08:43:42;0.70;99.90
42095;DHT22;27753;55.724;37.612;2022-12-11T08:46:09;0.70;99.90
42095;DHT22;27753;55.724;37.612;2022-12-11T08:48:37;0.80;99.90
42095;DHT22;27753;55.724;37.612;2022-12-11T08:51:10;0.90;99.90
42095;DHT22;27753;55.724;37.612;2022-12-11T08:53:45;0.90;99.90
42095;DHT22;27753;55.724;37.612;2022-12-11T08:56:16;0.90;99.90
42095;DHT22;27753;55.724;37.612;2022-12-11T08:58:46;1.00;99.90
42095;DHT22;27753;55.724;37.612;2022-12-11T09:01:15;0.90;99.90
42095;DHT22;27753;55.724;37.612;2022-12-11T09:03:42;0.90;99.90
42095;DHT22;27753;55.724;37.612;2022-12-11T09:06:11;0.90;99.90
42095;DHT22;27753;55.724;37.612;2022-12-11T09:08:38;0.80;99.90
42095;DHT22;27753;55.724;37.612;2022-12-11T09:11:05;0.70;99.90
42095;DHT22;27753;55.724;37.612;2022-12-11T09:13:33;0.70;99.90
42095;DHT22;27753;55.724;37.612;2022-12-11T09:16:02;0.80;99.90
42095;DHT22;27753;55.724;37.612;2022-12-11T09:18:28;0.80;99.90
42095;DHT22;27753;55.724;37.612;2022-12-11T09:21:02;0.80;99.90
42095;DHT22;27753;55.724;37.612;2022-12-11T09:23:28;0.80;99.90
42095;DHT22;27753;55.724;37.612;2022-12-11T09:25:58;0.80;99.90
42095;DHT22;27753;55.724;37.612;2022-12-11T09:28:24;0.70;99.90
42095;DHT22;27753;55.724;37.612;2022-12-11T09:30:51;0.70;99.90
42095;DHT22;27753;55.724;37.612;2022-12-11T09:33:19;0.70;99.90
42095;DHT22;27753;55.724;37.612;2022-12-11T09:35:45;0.70;99.90
42095;DHT22;27753;55.724;37.612;2022-12-11T09:38:13;0.80;99.90
42095;DHT22;27753;55.724;37.612;2022-12-11T09:40:42;0.80;99.90
42095;DHT22;27753;55.724;37.612;2022-12-11T09:43:30;0.70;99.90
42095;DHT22;27753;55.724;37.612;2022-12-11T09:46:03;0.70;99.90
42095;DHT22;27753;55.724;37.612;2022-12-11T09:48:34;0.70;99.90
42095;DHT22;27753;55.724;37.612;2022-12-11T09:53:55;0.90;99.90
42095;DHT22;27753;55.724;37.612;2022-12-11T09:56:51;0.90;99.90
42095;DHT22;27753;55.724;37.612;2022-12-11T10:02:45;1.00;99.90
42095;DHT22;27753;55.724;37.612;2022-12-11T10:17:58;0.80;99.90
42095;DHT22;27753;55.724;37.612;2022-12-11T10:20:32;0.80;99.90
42095;DHT22;27753;55.724;37.612;2022-12-11T10:23:19;0.80;99.90
42095;DHT22;27753;55.724;37.612;2022-12-11T10:26:08;0.80;99.90
42095;DHT22;27753;55.724;37.612;2022-12-11T10:32:24;0.80;99.90
42095;DHT22;27753;55.724;37.612;2022-12-11T10:35:02;0.80;99.90
42095;DHT22;27753;55.724;37.612;2022-12-11T10:48:29;0.80;99.90
42095;DHT22;27753;55.724;37.612;2022-12-11T10:51:05;0.70;99.90
42095;DHT22;27753;55.724;37.612;2022-12-11T10:53:32;0.70;99.90
42095;DHT22;27753;55.724;37.612;2022-12-11T10:55:59;0.70;99.90
42095;DHT22;27753;55.724;37.612;2022-12-11T10:58:30;0.70;99.90
42095;DHT22;27753;55.724;37.612;2022-12-11T11:01:13;0.70;99.90
42095;DHT22;27753;55.724;37.612;2022-12-11T11:04:13;0.80;99.90
42095;DHT22;27753;55.724;37.612;2022-12-11T11:06:40;0.80;99.90
42095;DHT22;27753;55.724;37.612;2022-12-11T11:09:30;0.70;99.90
42095;DHT22;27753;55.724;37.612;2022-12-11T11:12:40;0.60;99.90
42095;DHT22;27753;55.724;37.612;2022-12-11T11:15:28;0.60;99.90
42095;DHT22;27753;55.724;37.612;2022-12-11T11:17:57;0.60;99.90
42095;DHT22;27753;55.724;37.612;2022-12-11T11:20:29;0.50;99.90
42095;DHT22;27753;55.724;37.612;2022-12-11T11:23:00;0.50;99.90
42095;DHT22;27753;55.724;37.612;2022-12-11T11:25:32;0.50;99.90
42095;DHT22;27753;55.724;37.612;2022-12-11T11:28:05;0.50;99.90
42095;DHT22;27753;55.724;37.612;2022-12-11T11:33:27;0.50;99.90
42095;DHT22;27753;55.724;37.612;2022-12-11T11:36:05;0.50;99.90
42095;DHT22;27753;55.724;37.612;2022-12-11T11:38:43;0.60;99.90
42095;DHT22;27753;55.724;37.612;2022-12-11T11:41:16;0.60;99.90
42095;DHT22;27753;55.724;37.612;2022-12-11T11:44:24;0.60;99.90
42095;DHT22;27753;55.724;37.612;2022-12-11T11:47:16;0.50;99.90
42095;DHT22;27753;55.724;37.612;2022-12-11T11:49:54;0.50;99.90
42095;DHT22;27753;55.724;37.612;2022-12-11T11:52:54;0.40;99.90
42095;DHT22;27753;55.724;37.612;2022-12-11T12:01:48;0.40;99.90
42095;DHT22;27753;55.724;37.612;2022-12-11T12:04:15;0.30;99.90
42095;DHT22;27753;55.724;37.612;2022-12-11T12:15:20;0.30;99.90
42095;DHT22;27753;55.724;37.612;2022-12-11T12:18:01;0.20;99.90
42095;DHT22;27753;55.724;37.612;2022-12-11T12:26:20;0.20;99.90
42095;DHT22;27753;55.724;37.612;2022-12-11T12:34:56;0.20;99.90
42095;DHT22;27753;55.724;37.612;2022-12-11T12:48:17;0.20;99.90
42095;DHT22;27753;55.724;37.612;2022-12-11T12:50:46;0.20;99.90
42095;DHT22;27753;55.724;37.612;2022-12-11T12:53:21;0.30;99.90
42095;DHT22;27753;55.724;37.612;2022-12-11T12:55:48;0.20;99.90
42095;DHT22;27753;55.724;37.612;2022-12-11T13:01:04;0.30;99.90
42095;DHT22;27753;55.724;37.612;2022-12-11T13:03:31;0.20;99.90
42095;DHT22;27753;55.724;37.612;2022-12-11T13:06:03;0.20;99.90
42095;DHT22;27753;55.724;37.612;2022-12-11T13:08:46;0.20;99.90
42095;DHT22;27753;55.724;37.612;2022-12-11T13:11:16;0.20;99.90
42095;DHT22;27753;55.724;37.612;2022-12-11T13:16:41;0.20;99.90
42095;DHT22;27753;55.724;37.612;2022-12-11T13:27:37;0.10;99.90
42095;DHT22;27753;55.724;37.612;2022-12-11T13:30:06;0.10;99.90
42095;DHT22;27753;55.724;37.612;2022-12-11T13:32:32;0.10;99.90
42095;DHT22;27753;55.724;37.612;2022-12-11T13:35:06;0.20;99.90
42095;DHT22;27753;55.724;37.612;2022-12-11T13:37:38;0.20;99.90
42095;DHT22;27753;55.724;37.612;2022-12-11T13:40:13;0.20;99.90
42095;DHT22;27753;55.724;37.612;2022-12-11T13:42:48;0.20;99.90
42095;DHT22;27753;55.724;37.612;2022-12-11T13:45:26;0.20;99.90
42095;DHT22;27753;55.724;37.612;2022-12-11T13:47:57;0.20;99.90
42095;DHT22;27753;55.724;37.612;2022-12-11T13:50:29;0.20;99.90
42095;DHT22;27753;55.724;37.612;2022-12-11T13:52:59;0.20;99.90
42095;DHT22;27753;55.724;37.612;2022-12-11T13:55:31;0.20;99.90
42095;DHT22;27753;55.724;37.612;2022-12-11T13:57:58;0.20;99.90
42095;DHT22;27753;55.724;37.612;2022-12-11T14:00:26;0.20;99.90
42095;DHT22;27753;55.724;37.612;2022-12-11T14:03:04;0.20;99.90
42095;DHT22;27753;55.724;37.612;2022-12-11T14:05:33;0.20;99.90
42095;DHT22;27753;55.724;37.612;2022-12-11T14:08:01;0.20;99.90
42095;DHT22;27753;55.724;37.612;2022-12-11T14:10:31;0.20;99.90
42095;DHT22;27753;55.724;37.612;2022-12-11T14:13:13;0.10;99.90
42095;DHT22;27753;55.724;37.612;2022-12-11T14:15:44;0.10;99.90
42095;DHT22;27753;55.724;37.612;2022-12-11T14:18:35;0.10;99.90
42095;DHT22;27753;55.724;37.612;2022-12-11T14:21:04;0.10;99.90
42095;DHT22;27753;55.724;37.612;2022-12-11T14:23:32;0.00;99.90
42095;DHT22;27753;55.724;37.612;2022-12-11T14:26:18;0.00;99.90
42095;DHT22;27753;55.724;37.612;2022-12-11T14:28:45;0.00;99.90
42095;DHT22;27753;55.724;37.612;2022-12-11T14:31:40;0.00;99.90
42095;DHT22;27753;55.724;37.612;2022-12-11T14:34:37;0.00;99.90
42095;DHT22;27753;55.724;37.612;2022-12-11T14:37:07;0.00;99.90
42095;DHT22;27753;55.724;37.612;2022-12-11T14:42:20;0.00;99.90
42095;DHT22;27753;55.724;37.612;2022-12-11T14:45:05;0.00;99.90
42095;DHT22;27753;55.724;37.612;2022-12-11T14:47:37;0.00;99.90
42095;DHT22;27753;55.724;37.612;2022-12-11T14:50:40;0.00;99.90
42095;DHT22;27753;55.724;37.612;2022-12-11T14:56:25;0.00;99.90
42095;DHT22;27753;55.724;37.612;2022-12-11T15:01:28;0.00;99.90
42095;DHT22;27753;55.724;37.612;2022-12-11T15:06:50;-0.10;99.90
42095;DHT22;27753;55.724;37.612;2022-12-11T15:11:42;0.00;99.90
42095;DHT22;27753;55.724;37.612;2022-12-11T15:14:10;0.00;99.90
42095;DHT22;27753;55.724;37.612;2022-12-11T15:16:40;0.00;99.90
42095;DHT22;27753;55.724;37.612;2022-12-11T15:19:23;0.00;99.90
42095;DHT22;27753;55.724;37.612;2022-12-11T15:21:52;0.10;99.90
42095;DHT22;27753;55.724;37.612;2022-12-11T15:24:48;0.10;99.90
42095;DHT22;27753;55.724;37.612;2022-12-11T15:27:35;0.00;99.90
42095;DHT22;27753;55.724;37.612;2022-12-11T15:32:46;0.00;99.90
42095;DHT22;27753;55.724;37.612;2022-12-11T15:35:26;-0.10;99.90
42095;DHT22;27753;55.724;37.612;2022-12-11T15:37:53;-0.10;99.90
42095;DHT22;27753;55.724;37.612;2022-12-11T15:40:19;-0.10;99.90
42095;DHT22;27753;55.724;37.612;2022-12-11T15:42:45;-0.10;99.90
42095;DHT22;27753;55.724;37.612;2022-12-11T15:45:22;-0.10;99.90
42095;DHT22;27753;55.724;37.612;2022-12-11T15:47:52;-0.10;99.90
42095;DHT22;27753;55.724;37.612;2022-12-11T15:50:26;-0.10;99.90
42095;DHT22;27753;55.724;37.612;2022-12-11T15:52:55;-0.10;99.90
42095;DHT22;27753;55.724;37.612;2022-12-11T15:55:26;-0.10;99.90
42095;DHT22;27753;55.724;37.612;2022-12-11T15:57:55;-0.10;99.90
42095;DHT22;27753;55.724;37.612;2022-12-11T16:00:22;-0.10;99.90
42095;DHT22;27753;55.724;37.612;2022-12-11T16:02:56;-0.10;99.90
42095;DHT22;27753;55.724;37.612;2022-12-11T16:05:22;-0.10;99.90
42095;DHT22;27753;55.724;37.612;2022-12-11T16:07:49;0.00;99.90
42095;DHT22;27753;55.724;37.612;2022-12-11T16:10:20;0.00;99.90
42095;DHT22;27753;55.724;37.612;2022-12-11T16:12:46;0.00;99.90
42095;DHT22;27753;55.724;37.612;2022-12-11T16:15:19;0.00;99.90
42095;DHT22;27753;55.724;37.612;2022-12-11T16:17:45;0.10;99.90
42095;DHT22;27753;55.724;37.612;2022-12-11T16:20:14;0.10;99.90
42095;DHT22;27753;55.724;37.612;2022-12-11T16:22:40;0.10;99.90
42095;DHT22;27753;55.724;37.612;2022-12-11T16:25:06;0.10;99.90
42095;DHT22;27753;55.724;37.612;2022-12-11T16:27:32;0.10;99.90
42095;DHT22;27753;55.724;37.612;2022-12-11T16:30:01;0.10;99.90
42095;DHT22;27753;55.724;37.612;2022-12-11T16:32:27;0.10;99.90
42095;DHT22;27753;55.724;37.612;2022-12-11T16:34:53;0.10;99.90
42095;DHT22;27753;55.724;37.612;2022-12-11T16:37:18;0.10;99.90
42095;DHT22;27753;55.724;37.612;2022-12-11T16:39:45;0.10;99.90
42095;DHT22;27753;55.724;37.612;2022-12-11T16:42:15;0.20;99.90
42095;DHT22;27753;55.724;37.612;2022-12-11T16:44:41;0.20;99.90
42095;DHT22;27753;55.724;37.612;2022-12-11T16:47:10;0.20;99.90
42095;DHT22;27753;55.724;37.612;2022-12-11T16:49:36;0.20;99.90
42095;DHT22;27753;55.724;37.612;2022-12-11T16:52:28;0.20;99.90
42095;DHT22;27753;55.724;37.612;2022-12-11T16:55:02;0.20;99.90
42095;DHT22;27753;55.724;37.612;2022-12-11T16:57:28;0.20;99.90
42095;DHT22;27753;55.724;37.612;2022-12-11T16:59:58;0.20;99.90
42095;DHT22;27753;55.724;37.612;2022-12-11T17:02:24;0.20;99.90
42095;DHT22;27753;55.724;37.612;2022-12-11T17:04:50;0.20;99.90
42095;DHT22;27753;55.724;37.612;2022-12-11T17:07:17;0.20;99.90
42095;DHT22;27753;55.724;37.612;2022-12-11T17:09:44;0.20;99.90
42095;DHT22;27753;55.724;37.612;2022-12-11T17:12:10;0.20;99.90
42095;DHT22;27753;55.724;37.612;2022-12-11T17:14:36;0.20;99.90
42095;DHT22;27753;55.724;37.612;2022-12-11T17:17:04;0.20;99.90
42095;DHT22;27753;55.724;37.612;2022-12-11T17:19:33;0.20;99.90
42095;DHT22;27753;55.724;37.612;2022-12-11T17:21:59;0.20;99.90
42095;DHT22;27753;55.724;37.612;2022-12-11T17:24:25;0.20;99.90
42095;DHT22;27753;55.724;37.612;2022-12-11T17:26:51;0.20;99.90
42095;DHT22;27753;55.724;37.612;2022-12-11T17:29:17;0.20;99.90
42095;DHT22;27753;55.724;37.612;2022-12-11T17:31:44;0.20;99.90
42095;DHT22;27753;55.724;37.612;2022-12-11T17:34:10;0.20;99.90
42095;DHT22;27753;55.724;37.612;2022-12-11T17:36:36;0.20;99.90
42095;DHT22;27753;55.724;37.612;2022-12-11T17:39:02;0.20;99.90
42095;DHT22;27753;55.724;37.612;2022-12-11T17:41:28;0.20;99.90
42095;DHT22;27753;55.724;37.612;2022-12-11T17:43:54;0.20;99.90
42095;DHT22;27753;55.724;37.612;2022-12-11T17:46:20;0.20;99.90
42095;DHT22;27753;55.724;37.612;2022-12-11T17:48:47;0.20;99.90
42095;DHT22;27753;55.724;37.612;2022-12-11T17:51:14;0.20;99.90
42095;DHT22;27753;55.724;37.612;2022-12-11T17:53:46;0.20;99.90
42095;DHT22;27753;55.724;37.612;2022-12-11T17:56:12;0.20;99.90